Terminal Aerodrome Forecast
Issued by NWS Wilmington, OH

Current Version | Previous Version | Text Only | Print | Product List | Glossary Off
Versions: 1 2 3 4 5 6 7 8 9 10 11 12 13 14 15 16 17 18 19 20 21 22 23 24

248
FTUS41 KILN 111956 AAA
TAFDAY
TAF AMD
KDAY 111956Z 1120/1218 19010KT P6SM SCT050 BKN100
     FM120300 24010KT P6SM BKN100
     FM120600 27012G22KT P6SM VCSH OVC022
     FM120800 30015G28KT P6SM VCSH OVC014
     FM121200 31016G31KT 3SM -SHSN OVC014=

USA.gov is the U.S. government's official web portal to all federal, state and local government web resources and services.